Monteview, Idaho
Current Conditions -  °F | °C
As of 5:53 AM on Sunday 21 Dec 2014 (Local Time) from KRXE Reporting Station
Haze Haze  
Wind Chill: -5°   Ceiling: 500
Heat Index:   Visibility: 5mi
Dew Point:   Wind: 22mph
Humidity: 100%   Direction: 220°SW
Pressure: 29.74"   Gusts: 30mph
Location:  43.94°N, 112.54°W
Report Text: KRXE 211253Z AUTO 22019G26KT 5SM BR OVC005 02/02 A2974 RMK AO2 PK WND 21026/1253 UPE34RAB03E32 SLP081 P0000 T00170017
Loading
Personal Weather Stations






























Interactive Weather Map New forecast layout! Learn more

10-Day Weather Forecast

Advertisements
Track Severe Weather on mobile